Time;durP1;ratioP1;P1;durP2;ratioP2;P2;SDS_P1;SDS_P2;PMS_P1;PMS_P2;Temp;Humidity;BMP_temperature;BMP_pressure;BME280_temperature;BME280_humidity;BME280_pressure;Samples;Min_cycle;Max_cycle;Signal;HPM_P1;HPM_P2
2022/05/25 00:00:42;;;;;;;;;;;;;;;21.81;53.57;99390.59;4434574;32;19985;-83
2022/05/25 00:03:10;;;;;;;;;;;;;;;21.64;53.74;99388.56;4438946;32;19977;-82
2022/05/25 00:05:37;;;;;;;;;;;;;;;21.82;53.00;99403.72;4445766;32;19989;-82
2022/05/25 00:08:04;;;;;;;;;;;;;;;21.63;54.19;99417.59;4429684;32;20007;-80
2022/05/25 00:10:31;;;;;;;;;;;;;;;21.78;53.07;99411.78;4442446;32;20031;-82
2022/05/25 00:12:59;;;;;;;;;;;;;;;21.78;53.46;99407.34;4416817;32;20369;-82
2022/05/25 00:15:25;;;;;;;;;;;;;;;21.85;53.50;99401.88;4440009;32;20040;-80
2022/05/25 00:17:53;;;;;;;;;;;;;;;21.80;53.60;99391.50;4446392;32;19981;-80
2022/05/25 00:20:20;;;;;;;;;;;;;;;21.96;52.41;99389.16;4441058;32;20713;-78
2022/05/25 00:22:48;;;;;;;;;;;;;;;21.76;53.42;99381.97;4437616;32;20045;-81
2022/05/25 00:25:17;;;;;;;;;;;;;;;21.55;54.11;99378.38;4444754;32;19985;-83
2022/05/25 00:27:44;;;;;;;;;;;;;;;21.51;53.82;99382.03;4440760;32;19996;-81
2022/05/25 00:30:11;;;;;;;;;;;;;;;21.56;53.99;99385.34;4428998;32;20001;-80
2022/05/25 00:32:40;;;;;;;;;;;;;;;21.50;54.23;99390.84;4438775;32;19973;-80
2022/05/25 00:35:07;;;;;;;;;;;;;;;21.57;53.57;99387.09;4430936;32;20338;-82
2022/05/25 00:37:34;;;;;;;;;;;;;;;21.59;53.71;99395.78;4430878;32;20020;-81
2022/05/25 00:40:02;;;;;;;;;;;;;;;21.57;53.92;99395.00;4432797;32;19973;-80
2022/05/25 00:42:29;;;;;;;;;;;;;;;21.58;54.17;99394.06;4437374;32;19970;-81
2022/05/25 00:44:56;;;;;;;;;;;;;;;21.64;53.50;99388.56;4430805;32;20020;-80
2022/05/25 00:47:24;;;;;;;;;;;;;;;21.56;54.04;99390.63;4431480;32;20003;-80
2022/05/25 00:49:51;;;;;;;;;;;;;;;21.58;54.97;99394.06;4437327;32;19985;-82
2022/05/25 00:52:18;;;;;;;;;;;;;;;21.62;54.91;99390.41;4432660;32;19981;-80
2022/05/25 00:54:50;;;;;;;;;;;;;;;21.66;54.84;99385.88;4443243;32;19995;-81
2022/05/25 00:57:18;;;;;;;;;;;;;;;21.71;53.68;99390.06;4441356;32;19997;-80
2022/05/25 00:59:56;;;;;;;;;;;;;;;21.65;54.29;99398.19;4436322;32;20068;-78
2022/05/25 01:02:23;;;;;;;;;;;;;;;21.67;54.29;99393.72;4429906;32;19973;-80
2022/05/25 01:04:50;;;;;;;;;;;;;;;21.69;54.04;99402.41;4432319;32;20037;-79
2022/05/25 01:07:36;;;;;;;;;;;;;;;21.73;53.61;99401.41;4437375;32;19986;-79
2022/05/25 01:10:03;;;;;;;;;;;;;;;21.53;55.14;99402.12;4433464;32;20007;-80
2022/05/25 01:12:37;;;;;;;;;;;;;;;21.65;54.38;99406.09;4432011;32;19993;-80
2022/05/25 01:15:04;;;;;;;;;;;;;;;21.68;54.17;99405.97;4438485;32;20427;-80
2022/05/25 01:17:43;;;;;;;;;;;;;;;21.72;53.86;99394.41;4432207;32;20042;-80
2022/05/25 01:20:13;;;;;;;;;;;;;;;21.68;53.56;99400.72;4433621;32;19976;-79
2022/05/25 01:22:58;;;;;;;;;;;;;;;21.62;54.12;99406.19;4444953;32;19989;-79
2022/05/25 01:25:44;;;;;;;;;;;;;;;21.57;53.33;99408.16;4446288;32;20030;-79
2022/05/25 01:28:23;;;;;;;;;;;;;;;21.67;52.65;99417.44;4448144;32;20044;-80
2022/05/25 01:30:51;;;;;;;;;;;;;;;21.65;52.98;99408.72;4447737;32;20026;-80
2022/05/25 01:33:30;;;;;;;;;;;;;;;21.66;52.95;99405.16;4444583;32;20048;-81
2022/05/25 01:36:12;;;;;;;;;;;;;;;21.67;53.68;99409.53;4438240;32;19973;-79
2022/05/25 01:38:45;;;;;;;;;;;;;;;21.60;53.07;99410.66;4432959;32;20008;-79
2022/05/25 01:41:29;;;;;;;;;;;;;;;21.70;52.03;99404.16;4432837;32;19986;-79
2022/05/25 01:43:58;;;;;;;;;;;;;;;21.57;52.69;99405.53;4431158;32;19997;-79
2022/05/25 01:46:26;;;;;;;;;;;;;;;21.58;53.12;99409.88;4437368;32;19985;-79
2022/05/25 01:48:54;;;;;;;;;;;;;;;21.61;52.29;99409.75;4434013;32;19985;-80
2022/05/25 01:51:23;;;;;;;;;;;;;;;21.64;52.93;99414.91;4444376;32;20469;-80
2022/05/25 01:53:52;;;;;;;;;;;;;;;21.66;52.19;99410.44;4446328;32;19995;-83
2022/05/25 01:56:19;;;;;;;;;;;;;;;21.64;51.66;99399.13;4446308;32;20308;-81
2022/05/25 01:58:47;;;;;;;;;;;;;;;21.55;51.81;99395.03;4440910;32;20641;-80
2022/05/25 02:01:14;;;;;;;;;;;;;;;21.44;51.97;99396.31;4431720;32;20021;-80
2022/05/25 02:06:46;;;;;;;;;;;;;;;21.45;51.55;99398.91;4431984;32;19990;-79
2022/05/25 02:09:18;;;;;;;;;;;;;;;21.42;51.85;99411.34;4434346;32;20027;-82
2022/05/25 02:11:50;;;;;;;;;;;;;;;21.50;51.48;99411.91;4440680;32;19981;-80
2022/05/25 02:14:17;;;;;;;;;;;;;;;21.45;52.15;99411.22;4444086;32;19980;-80
2022/05/25 02:17:03;;;;;;;;;;;;;;;21.40;51.85;99405.25;4439218;32;19988;-80
2022/05/25 02:19:35;;;;;;;;;;;;;;;21.40;52.10;99407.88;4442888;32;20012;-79
2022/05/25 02:22:19;;;;;;;;;;;;;;;21.44;51.91;99401.59;4426570;32;20302;-79
2022/05/25 02:24:55;;;;;;;;;;;;;;;21.19;51.96;99399.78;4429477;32;19973;-80
2022/05/25 02:27:23;;;;;;;;;;;;;;;21.40;50.79;99395.56;4433320;32;19982;-79
2022/05/25 02:29:51;;;;;;;;;;;;;;;21.50;52.23;99398.72;4433255;32;20015;-80
2022/05/25 02:32:23;;;;;;;;;;;;;;;21.45;51.17;99405.97;4432983;32;20003;-79
2022/05/25 02:34:53;;;;;;;;;;;;;;;21.48;51.28;99397.94;4431144;32;19974;-79
2022/05/25 02:37:21;;;;;;;;;;;;;;;21.37;51.09;99400.94;4408757;32;20050;-80
2022/05/25 02:39:52;;;;;;;;;;;;;;;21.46;50.99;99399.78;4430167;32;20003;-80
2022/05/25 02:42:19;;;;;;;;;;;;;;;21.50;50.63;99393.47;4432239;32;19977;-79
2022/05/25 02:44:46;;;;;;;;;;;;;;;21.26;51.26;99382.88;4438198;32;19974;-82
2022/05/25 02:47:13;;;;;;;;;;;;;;;21.35;50.73;99393.13;4417504;32;20049;-80
2022/05/25 02:49:40;;;;;;;;;;;;;;;21.16;51.49;99392.00;4417663;32;19981;-79
2022/05/25 02:52:10;;;;;;;;;;;;;;;21.16;51.21;99392.00;4439534;32;20002;-80
2022/05/25 02:54:37;;;;;;;;;;;;;;;21.12;51.21;99391.25;4433685;32;20004;-81
2022/05/25 02:57:05;;;;;;;;;;;;;;;21.06;51.57;99393.25;4433142;32;19981;-79
2022/05/25 02:59:32;;;;;;;;;;;;;;;21.08;51.54;99404.56;4447210;32;20314;-80
2022/05/25 03:02:04;;;;;;;;;;;;;;;21.09;51.36;99403.62;4436693;32;20064;-79
2022/05/25 03:04:34;;;;;;;;;;;;;;;20.88;51.90;99403.44;4447034;32;19981;-79
2022/05/25 03:07:02;;;;;;;;;;;;;;;20.80;52.08;99401.97;4447293;32;20861;-81
2022/05/25 03:09:28;;;;;;;;;;;;;;;20.84;52.14;99396.56;4441864;32;19984;-81
2022/05/25 03:11:56;;;;;;;;;;;;;;;20.92;51.97;99398.09;4091841;32;10004235;-79
2022/05/25 03:14:22;;;;;;;;;;;;;;;20.88;51.93;99402.59;4372925;32;20045;-80
2022/05/25 03:16:49;;;;;;;;;;;;;;;20.86;51.73;99405.25;4393288;32;20006;-81
2022/05/25 03:19:17;;;;;;;;;;;;;;;20.86;52.00;99400.00;4385457;32;20309;-83
2022/05/25 03:21:44;;;;;;;;;;;;;;;20.83;52.40;99400.09;4380567;32;20248;-80
2022/05/25 03:24:12;;;;;;;;;;;;;;;20.90;52.15;99398.16;4387062;32;19986;-80
2022/05/25 03:26:40;;;;;;;;;;;;;;;20.93;52.48;99402.44;4400824;32;20300;-80
2022/05/25 03:29:08;;;;;;;;;;;;;;;21.06;51.49;99395.88;4400620;32;19990;-81
2022/05/25 03:31:35;;;;;;;;;;;;;;;20.68;52.33;99395.38;4395306;32;20012;-81
2022/05/25 03:34:02;;;;;;;;;;;;;;;20.84;52.00;99393.94;4388743;32;19978;-81
2022/05/25 03:36:29;;;;;;;;;;;;;;;20.82;51.72;99403.66;4395599;32;20100;-80
2022/05/25 03:38:55;;;;;;;;;;;;;;;20.89;51.68;99406.94;4411309;32;20727;-80
2022/05/25 03:41:23;;;;;;;;;;;;;;;20.72;51.94;99407.50;4416223;32;20004;-80
2022/05/25 03:43:49;;;;;;;;;;;;;;;20.88;51.67;99407.84;4415986;32;20001;-82
2022/05/25 03:46:16;;;;;;;;;;;;;;;20.94;51.32;99412.06;4423737;32;20876;-80
2022/05/25 03:48:43;;;;;;;;;;;;;;;20.86;51.99;99421.03;4414813;32;20042;-80
2022/05/25 03:51:10;;;;;;;;;;;;;;;20.84;52.13;99422.88;4424382;32;20049;-80
2022/05/25 03:53:40;;;;;;;;;;;;;;;20.94;51.98;99422.59;4415859;32;20004;-80
2022/05/25 03:56:08;;;;;;;;;;;;;;;21.04;51.67;99418.72;4402125;32;20150;-80
2022/05/25 03:58:36;;;;;;;;;;;;;;;21.05;52.20;99425.72;4415440;32;19986;-80
2022/05/25 04:01:03;;;;;;;;;;;;;;;21.10;51.62;99431.69;4415936;32;19996;-79
2022/05/25 04:03:31;;;;;;;;;;;;;;;21.02;51.44;99431.06;4423918;32;19982;-82
2022/05/25 04:05:58;;;;;;;;;;;;;;;20.93;52.24;99447.16;4416381;32;20401;-79
2022/05/25 04:08:24;;;;;;;;;;;;;;;21.11;51.80;99442.16;4415771;32;19982;-80
2022/05/25 04:10:52;;;;;;;;;;;;;;;21.08;51.53;99442.25;4417502;32;20785;-80
2022/05/25 04:13:20;;;;;;;;;;;;;;;20.79;52.42;99435.31;4408490;32;20347;-81
2022/05/25 04:15:47;;;;;;;;;;;;;;;21.05;51.57;99436.22;4422281;32;20027;-82
2022/05/25 04:18:14;;;;;;;;;;;;;;;21.04;52.22;99439.78;4417499;32;19982;-81
2022/05/25 04:20:41;;;;;;;;;;;;;;;20.95;52.23;99440.09;4417939;32;20686;-81
2022/05/25 04:23:10;;;;;;;;;;;;;;;21.17;50.70;99446.34;4412302;32;19986;-80
2022/05/25 04:25:39;;;;;;;;;;;;;;;20.89;51.78;99452.50;4401342;32;20838;-81
2022/05/25 04:28:06;;;;;;;;;;;;;;;20.98;51.33;99461.03;4389778;32;20026;-82
2022/05/25 04:30:33;;;;;;;;;;;;;;;20.96;52.22;99473.38;4412947;32;20024;-82
2022/05/25 04:33:01;;;;;;;;;;;;;;;21.29;51.31;99461.75;4393085;32;20000;-80
2022/05/25 04:35:28;;;;;;;;;;;;;;;21.24;50.19;99458.38;4400338;32;20025;-83
2022/05/25 04:37:56;;;;;;;;;;;;;;;21.23;50.89;99446.16;4380286;32;19993;-81
2022/05/25 04:40:26;;;;;;;;;;;;;;;21.10;51.11;99450.13;4409660;32;20018;-84
2022/05/25 04:42:54;;;;;;;;;;;;;;;21.41;49.96;99443.81;4389075;32;19994;-83
2022/05/25 04:45:21;;;;;;;;;;;;;;;21.16;50.20;99441.16;4414206;32;19982;-82
2022/05/25 04:47:48;;;;;;;;;;;;;;;21.25;50.25;99443.44;4408064;32;19990;-81
2022/05/25 04:50:16;;;;;;;;;;;;;;;21.36;49.63;99447.47;4399336;32;20899;-83
2022/05/25 04:52:43;;;;;;;;;;;;;;;21.27;50.52;99452.16;4408531;32;20049;-80
2022/05/25 04:57:19;;;;;;;;;;;;;;;21.29;50.00;99456.47;4415078;32;20315;-81
2022/05/25 04:57:57;;;;;;;;;;;;;;;21.12;51.10;99464.06;4414853;32;20033;-81
2022/05/25 05:00:25;;;;;;;;;;;;;;;21.36;50.44;99454.53;4403593;32;20311;-85
2022/05/25 05:02:52;;;;;;;;;;;;;;;21.27;50.79;99468.81;4407029;32;19990;-80
2022/05/25 05:05:19;;;;;;;;;;;;;;;21.25;50.93;99462.78;4407553;32;19989;-80
2022/05/25 05:07:46;;;;;;;;;;;;;;;21.35;51.46;99469.47;4402797;32;20712;-77
2022/05/25 05:10:13;;;;;;;;;;;;;;;21.36;50.93;99468.53;4408491;32;19981;-79
2022/05/25 05:12:40;;;;;;;;;;;;;;;21.26;51.30;99464.47;4401893;32;20009;-82
2022/05/25 05:15:08;;;;;;;;;;;;;;;21.19;52.37;99470.88;4405925;32;20007;-79
2022/05/25 05:17:35;;;;;;;;;;;;;;;21.01;52.43;99476.72;4395117;32;19989;-84
2022/05/25 05:20:03;;;;;;;;;;;;;;;21.39;51.92;99477.25;4390388;32;19985;-82
2022/05/25 05:22:31;;;;;;;;;;;;;;;21.14;51.94;99483.31;4419369;32;19996;-85
2022/05/25 05:24:58;;;;;;;;;;;;;;;21.23;51.79;99476.88;4429351;32;20041;-82
2022/05/25 05:27:26;;;;;;;;;;;;;;;21.19;52.06;99480.53;4430296;32;20019;-81
2022/05/25 05:29:53;;;;;;;;;;;;;;;21.49;51.82;99494.47;4426322;32;20049;-84
2022/05/25 05:32:20;;;;;;;;;;;;;;;21.58;51.45;99488.88;4396937;32;19996;-84
2022/05/25 05:34:46;;;;;;;;;;;;;;;21.47;51.83;99491.00;4414667;32;19970;-80
2022/05/25 05:37:17;;;;;;;;;;;;;;;21.65;51.69;99500.94;4416152;32;19978;-83
2022/05/25 05:39:45;;;;;;;;;;;;;;;21.75;51.30;99502.31;4414658;32;20061;-84
2022/05/25 05:42:14;;;;;;;;;;;;;;;21.78;51.37;99507.47;4417198;32;19978;-83
2022/05/25 05:44:42;;;;;;;;;;;;;;;21.82;51.15;99514.38;4415566;32;20315;-85
2022/05/25 05:47:10;;;;;;;;;;;;;;;21.94;51.21;99514.84;4415280;32;20271;-83
2022/05/25 05:49:37;;;;;;;;;;;;;;;22.03;50.66;99511.88;4415849;32;20020;-82
2022/05/25 05:52:06;;;;;;;;;;;;;;;22.01;51.14;99508.44;4420795;32;19981;-84
2022/05/25 05:54:33;;;;;;;;;;;;;;;21.81;51.68;99519.69;4426132;32;20045;-80
2022/05/25 05:56:59;;;;;;;;;;;;;;;22.03;51.20;99527.69;4411043;32;20036;-84
2022/05/25 05:59:26;;;;;;;;;;;;;;;22.13;50.90;99529.09;4430427;32;19977;-84
2022/05/25 06:01:53;;;;;;;;;;;;;;;22.22;50.50;99533.22;4430118;32;20026;-82
2022/05/25 06:04:22;;;;;;;;;;;;;;;22.39;50.31;99529.94;4423901;32;19999;-81
2022/05/25 06:06:49;;;;;;;;;;;;;;;22.25;50.52;99526.03;4421990;32;20324;-84
2022/05/25 06:09:16;;;;;;;;;;;;;;;22.37;50.27;99526.50;4416641;32;19977;-83
2022/05/25 06:11:43;;;;;;;;;;;;;;;22.31;50.61;99519.69;4417516;32;19985;-81
2022/05/25 06:14:10;;;;;;;;;;;;;;;22.54;49.85;99518.81;4426047;32;20430;-82
2022/05/25 06:19:29;;;;;;;;;;;;;;;22.72;49.32;99523.38;4404068;32;19999;-85
2022/05/25 06:21:58;;;;;;;;;;;;;;;22.87;49.13;99526.34;4425915;32;19997;-84
2022/05/25 06:24:26;;;;;;;;;;;;;;;23.04;48.69;99523.94;4424213;32;19974;-80
2022/05/25 06:26:54;;;;;;;;;;;;;;;22.98;49.02;99519.75;4427779;32;20044;-79
2022/05/25 06:29:21;;;;;;;;;;;;;;;23.30;47.99;99530.78;4434951;32;20045;-83
2022/05/25 06:31:48;;;;;;;;;;;;;;;23.72;47.71;99531.72;4416351;32;20012;-87
2022/05/25 06:34:15;;;;;;;;;;;;;;;24.04;46.91;99533.81;4424006;32;20345;-82
2022/05/25 06:36:42;;;;;;;;;;;;;;;24.24;46.76;99529.44;4422912;32;20002;-85
2022/05/25 06:39:10;;;;;;;;;;;;;;;24.31;45.80;99520.28;4430296;32;19973;-84
2022/05/25 06:41:36;;;;;;;;;;;;;;;24.57;45.36;99514.69;4430917;32;19986;-78
2022/05/25 06:44:04;;;;;;;;;;;;;;;24.82;45.14;99521.47;4431476;32;19993;-80
2022/05/25 06:46:31;;;;;;;;;;;;;;;24.89;44.65;99512.31;4414636;32;20259;-84
2022/05/25 06:48:58;;;;;;;;;;;;;;;25.24;44.54;99509.78;4418102;32;20124;-82
2022/05/25 06:51:26;;;;;;;;;;;;;;;25.54;43.24;99515.31;4413000;32;20068;-82
2022/05/25 06:53:53;;;;;;;;;;;;;;;25.80;42.41;99513.97;4407601;32;19989;-79
2022/05/25 06:56:20;;;;;;;;;;;;;;;25.81;42.87;99525.47;4411383;32;19982;-80
2022/05/25 06:58:47;;;;;;;;;;;;;;;25.66;43.11;99519.16;4407883;32;19997;-80
2022/05/25 07:01:14;;;;;;;;;;;;;;;25.64;42.97;99528.97;4408710;32;19994;-81
2022/05/25 07:03:41;;;;;;;;;;;;;;;26.15;42.71;99527.22;4400224;32;19982;-83
2022/05/25 07:06:09;;;;;;;;;;;;;;;26.34;40.94;99535.91;4402568;32;19997;-84
2022/05/25 07:08:36;;;;;;;;;;;;;;;26.35;41.44;99540.25;4404478;32;19978;-82
2022/05/25 07:11:04;;;;;;;;;;;;;;;26.46;41.67;99544.16;4412981;32;19997;-81
2022/05/25 07:13:31;;;;;;;;;;;;;;;26.87;40.71;99532.16;4412432;32;19970;-81
2022/05/25 07:16:03;;;;;;;;;;;;;;;26.77;41.37;99533.59;4413820;32;20370;-82
2022/05/25 07:18:30;;;;;;;;;;;;;;;26.93;40.75;99519.44;4413772;32;19996;-82
2022/05/25 07:20:58;;;;;;;;;;;;;;;26.61;42.00;99524.75;4413233;32;20446;-83
2022/05/25 07:23:25;;;;;;;;;;;;;;;26.64;41.23;99524.56;4413932;32;20019;-84
2022/05/25 07:25:52;;;;;;;;;;;;;;;26.77;41.93;99530.94;4415073;32;20473;-86
2022/05/25 07:28:19;;;;;;;;;;;;;;;27.25;40.51;99538.88;4415182;32;19982;-84
2022/05/25 07:30:47;;;;;;;;;;;;;;;27.31;40.20;99535.87;4413846;32;19997;-84
2022/05/25 07:33:14;;;;;;;;;;;;;;;27.73;39.17;99529.00;4412958;32;19970;-85
2022/05/25 07:35:41;;;;;;;;;;;;;;;27.73;39.27;99537.84;4413368;32;20031;-83
2022/05/25 07:38:10;;;;;;;;;;;;;;;27.32;41.60;99538.47;4412684;32;19985;-83
2022/05/25 07:40:38;;;;;;;;;;;;;;;27.50;42.16;99541.84;4412552;32;19993;-82
2022/05/25 07:43:07;;;;;;;;;;;;;;;28.03;38.59;99539.62;4414094;32;19973;-86
2022/05/25 07:45:35;;;;;;;;;;;;;;;28.00;40.42;99534.50;4413145;32;20046;-84
2022/05/25 07:48:02;;;;;;;;;;;;;;;27.72;40.69;99536.09;4412098;32;19994;-82
2022/05/25 07:50:37;;;;;;;;;;;;;;;28.06;39.34;99544.75;4413976;32;20060;-80
2022/05/25 07:53:04;;;;;;;;;;;;;;;28.10;40.50;99535.63;4399950;32;20017;-81
2022/05/25 07:55:34;;;;;;;;;;;;;;;27.81;40.14;99540.91;4413916;32;19998;-86
2022/05/25 07:58:02;;;;;;;;;;;;;;;27.86;39.36;99538.00;4399138;32;20000;-83
2022/05/25 08:00:29;;;;;;;;;;;;;;;28.26;38.69;99541.72;4413607;32;20024;-85
2022/05/25 08:05:54;;;;;;;;;;;;;;;27.95;41.32;99547.22;4396837;32;19993;-84
2022/05/25 08:08:22;;;;;;;;;;;;;;;28.52;37.94;99542.78;4412679;32;19999;-84
2022/05/25 08:11:02;;;;;;;;;;;;;;;28.17;39.63;99546.75;4411781;32;20420;-83
2022/05/25 08:13:30;;;;;;;;;;;;;;;28.65;38.92;99547.34;4413299;32;19981;-85
2022/05/25 08:15:57;;;;;;;;;;;;;;;28.16;39.57;99545.91;4413126;32;20005;-82
2022/05/25 08:18:24;;;;;;;;;;;;;;;28.58;38.43;99544.22;4412820;32;19982;-81
2022/05/25 08:20:51;;;;;;;;;;;;;;;28.62;38.23;99540.44;4411923;32;19996;-81
2022/05/25 08:23:18;;;;;;;;;;;;;;;28.21;38.66;99540.31;4414488;32;19974;-81
2022/05/25 08:25:49;;;;;;;;;;;;;;;28.43;40.51;99545.16;4413061;32;20358;-88
2022/05/25 08:28:16;;;;;;;;;;;;;;;28.61;39.92;99533.38;4408737;32;21663;-88
2022/05/25 08:30:44;;;;;;;;;;;;;;;28.73;40.31;99535.25;4411757;32;20001;-91
2022/05/25 08:33:12;;;;;;;;;;;;;;;28.80;41.51;99529.53;4413505;32;19985;-87
2022/05/25 08:35:40;;;;;;;;;;;;;;;28.79;38.69;99527.84;4412259;32;20052;-87
2022/05/25 08:38:09;;;;;;;;;;;;;;;28.97;41.07;99531.97;4413206;32;20002;-84
2022/05/25 08:40:37;;;;;;;;;;;;;;;28.77;38.61;99535.06;4411915;32;19981;-83
2022/05/25 08:43:24;;;;;;;;;;;;;;;28.28;40.43;99538.97;4411710;32;19982;-86
2022/05/25 08:45:57;;;;;;;;;;;;;;;28.71;39.43;99536.31;4402956;32;19978;-91
2022/05/25 08:48:25;;;;;;;;;;;;;;;28.53;40.82;99538.34;4410318;32;19985;-87
2022/05/25 08:50:58;;;;;;;;;;;;;;;28.32;41.70;99544.97;4406280;32;19992;-84
2022/05/25 08:53:30;;;;;;;;;;;;;;;28.56;40.48;99532.81;4414294;32;20029;-87
2022/05/25 08:56:16;;;;;;;;;;;;;;;28.61;39.22;99530.72;4408461;32;19970;-88
2022/05/25 08:58:47;;;;;;;;;;;;;;;28.20;40.19;99539.44;4386407;32;20045;-85
2022/05/25 09:01:21;;;;;;;;;;;;;;;28.95;39.08;99529.41;4409504;32;20021;-82
2022/05/25 09:03:51;;;;;;;;;;;;;;;29.12;38.75;99520.31;4402276;32;19985;-88
2022/05/25 09:06:18;;;;;;;;;;;;;;;29.22;39.63;99525.06;4399897;32;20918;-85
2022/05/25 09:08:46;;;;;;;;;;;;;;;29.60;38.41;99526.03;4407344;32;19994;-82
2022/05/25 09:11:18;;;;;;;;;;;;;;;29.35;39.54;99523.28;4398913;32;20049;-81
2022/05/25 09:14:05;;;;;;;;;;;;;;;29.40;38.39;99529.16;4399530;32;19978;-87
2022/05/25 09:16:33;;;;;;;;;;;;;;;29.37;39.88;99530.22;4407626;32;19978;-88
2022/05/25 09:19:01;;;;;;;;;;;;;;;29.63;38.72;99528.50;4402591;32;20044;-86
2022/05/25 09:21:33;;;;;;;;;;;;;;;29.31;40.49;99532.44;4394459;32;19992;-83
2022/05/25 09:24:03;;;;;;;;;;;;;;;29.27;39.37;99528.28;4411066;32;19982;-86
2022/05/25 09:26:31;;;;;;;;;;;;;;;29.37;37.99;99529.37;4401256;32;19994;-83
2022/05/25 09:29:00;;;;;;;;;;;;;;;28.64;42.98;99535.84;4400840;32;20046;-85
2022/05/25 09:31:31;;;;;;;;;;;;;;;28.78;41.34;99536.75;4408740;32;20422;-84
2022/05/25 09:34:00;;;;;;;;;;;;;;;28.46;43.30;99542.31;4401925;32;20033;-83
2022/05/25 09:36:31;;;;;;;;;;;;;;;28.80;41.69;99529.53;4406930;32;20045;-83
2022/05/25 09:39:03;;;;;;;;;;;;;;;28.84;42.31;99531.88;4405050;32;20075;-84
2022/05/25 09:41:31;;;;;;;;;;;;;;;29.11;40.65;99529.28;4404031;32;19986;-84
2022/05/25 09:43:59;;;;;;;;;;;;;;;28.84;43.84;99531.03;4402172;32;19978;-87
2022/05/25 09:46:50;;;;;;;;;;;;;;;29.35;41.80;99536.63;4407148;32;19999;-88
2022/05/25 09:49:31;;;;;;;;;;;;;;;29.49;39.73;99528.56;4405261;32;20058;-83
2022/05/25 09:52:02;;;;;;;;;;;;;;;30.07;38.09;99535.28;4412948;32;20335;-88
2022/05/25 09:54:39;;;;;;;;;;;;;;;30.09;38.13;99528.03;4415717;32;20041;-92
2022/05/25 09:57:07;;;;;;;;;;;;;;;29.23;41.65;99537.41;4421569;32;20006;-91
2022/05/25 09:59:50;;;;;;;;;;;;;;;28.97;41.55;99542.63;4402459;32;20380;-89
2022/05/25 10:02:31;;;;;;;;;;;;;;;29.44;39.80;99530.66;4415933;32;20032;-92
2022/05/25 10:05:06;;;;;;;;;;;;;;;28.54;42.85;99536.53;4411097;32;20327;-91
2022/05/25 10:07:34;;;;;;;;;;;;;;;29.30;42.35;99538.75;4423515;32;19995;-89
2022/05/25 10:10:06;;;;;;;;;;;;;;;29.69;39.78;99534.38;4438957;32;19990;-89
2022/05/25 10:12:34;;;;;;;;;;;;;;;29.69;40.01;99529.06;4418255;32;20311;-87
2022/05/25 10:15:02;;;;;;;;;;;;;;;28.94;42.90;99538.38;4432268;32;19978;-91
2022/05/25 10:17:35;;;;;;;;;;;;;;;28.54;43.73;99534.72;4422840;32;19993;-90
2022/05/25 10:20:03;;;;;;;;;;;;;;;28.44;42.70;99531.78;4433340;32;19981;-90
2022/05/25 10:22:37;;;;;;;;;;;;;;;29.61;39.54;99527.78;4439721;32;20032;-88
2022/05/25 10:25:04;;;;;;;;;;;;;;;29.53;40.53;99526.53;4416704;32;20031;-88
2022/05/25 10:27:49;;;;;;;;;;;;;;;29.16;40.88;99527.19;4431914;32;19988;-84
2022/05/25 10:38:48;;;;;;;;;;;;;;;29.46;40.39;99518.09;4420194;32;19977;-88
2022/05/25 10:44:01;;;;;;;;;;;;;;;30.01;38.94;99525.00;4403604;32;20554;-86
2022/05/25 10:46:28;;;;;;;;;;;;;;;29.99;40.59;99523.41;4431703;32;20345;-81
2022/05/25 10:48:57;;;;;;;;;;;;;;;29.75;41.44;99520.63;4412647;32;19974;-84
2022/05/25 10:51:27;;;;;;;;;;;;;;;29.36;41.89;99527.69;4428926;32;20041;-81
2022/05/25 10:57:10;;;;;;;;;;;;;;;29.71;39.57;99519.13;4404801;32;20342;-81
2022/05/25 10:59:46;;;;;;;;;;;;;;;29.71;38.79;99527.13;4416617;32;20001;-91
2022/05/25 11:02:16;;;;;;;;;;;;;;;29.00;42.57;99526.44;4406309;32;20432;-87
2022/05/25 11:04:59;;;;;;;;;;;;;;;28.99;42.19;99524.72;4416329;32;20031;-86
2022/05/25 11:07:37;;;;;;;;;;;;;;;29.00;42.46;99526.44;4402212;32;20033;-86
2022/05/25 11:10:22;;;;;;;;;;;;;;;28.74;44.12;99520.97;4424109;32;19970;-87
2022/05/25 11:12:52;;;;;;;;;;;;;;;29.16;41.34;99524.53;4428107;32;19993;-83
2022/05/25 11:15:19;;;;;;;;;;;;;;;29.71;38.97;99532.44;4431415;32;20048;-90
2022/05/25 11:17:48;;;;;;;;;;;;;;;29.78;39.19;99528.44;4431277;32;20439;-86
2022/05/25 11:20:34;;;;;;;;;;;;;;;29.83;38.34;99531.62;4422894;32;20004;-85
2022/05/25 11:23:01;;;;;;;;;;;;;;;30.00;37.81;99528.66;4424746;32;19981;-85
2022/05/25 11:25:30;;;;;;;;;;;;;;;29.94;39.42;99529.09;4428805;32;20044;-85
2022/05/25 11:28:06;;;;;;;;;;;;;;;29.90;39.92;99532.94;4414832;32;20323;-86
2022/05/25 11:30:48;;;;;;;;;;;;;;;30.09;38.48;99533.38;4431683;32;19988;-80
2022/05/25 11:33:15;;;;;;;;;;;;;;;30.34;39.15;99528.97;4431493;32;20064;-84
2022/05/25 11:36:00;;;;;;;;;;;;;;;30.09;37.58;99535.19;4429079;32;20045;-84
2022/05/25 11:38:26;;;;;;;;;;;;;;;30.37;37.07;99539.44;4416877;32;20663;-84
2022/05/25 11:40:59;;;;;;;;;;;;;;;30.44;36.01;99530.06;4428346;32;20029;-90
2022/05/25 11:43:45;;;;;;;;;;;;;;;30.09;38.97;99533.38;4428874;32;19992;-84
2022/05/25 11:46:16;;;;;;;;;;;;;;;30.19;36.84;99522.03;4430916;32;20045;-89
2022/05/25 11:49:21;;;;;;;;;;;;;;;30.45;36.73;99523.75;4429627;32;20378;-87
2022/05/25 11:51:52;;;;;;;;;;;;;;;30.00;41.98;99528.66;4419959;32;20029;-87
2022/05/25 11:54:28;;;;;;;;;;;;;;;30.34;37.95;99531.66;4417558;32;20013;-83
2022/05/25 11:56:55;;;;;;;;;;;;;;;30.31;39.11;99531.88;4431440;32;19995;-89
2022/05/25 11:59:41;;;;;;;;;;;;;;;30.16;40.82;99538.28;4426227;32;20016;-84
2022/05/25 12:02:14;;;;;;;;;;;;;;;30.00;41.41;99547.34;4415720;32;20028;-88
2022/05/25 12:04:41;;;;;;;;;;;;;;;30.50;38.02;99542.94;4419409;32;20039;-86
2022/05/25 12:07:10;;;;;;;;;;;;;;;30.59;38.76;99542.28;4427439;32;20058;-83
2022/05/25 12:09:47;;;;;;;;;;;;;;;30.25;39.63;99542.97;4423816;32;19991;-79
2022/05/25 12:12:24;;;;;;;;;;;;;;;30.76;37.53;99540.22;4418355;32;20015;-84
2022/05/25 12:14:54;;;;;;;;;;;;;;;30.76;38.15;99543.78;4428390;32;20008;-83
2022/05/25 12:17:40;;;;;;;;;;;;;;;30.70;38.06;99554.06;4430132;32;20347;-85
2022/05/25 12:20:09;;;;;;;;;;;;;;;30.62;37.67;99557.25;4426713;32;19993;-87
2022/05/25 12:22:36;;;;;;;;;;;;;;;30.30;38.50;99551.53;4427555;32;20001;-82
2022/05/25 12:25:05;;;;;;;;;;;;;;;29.76;39.97;99551.69;4429890;32;19989;-86
2022/05/25 12:27:33;;;;;;;;;;;;;;;30.10;38.19;99545.75;4413790;32;19993;-84
2022/05/25 12:30:06;;;;;;;;;;;;;;;29.76;39.46;99551.69;4427184;32;20028;-85
2022/05/25 12:32:35;;;;;;;;;;;;;;;29.91;38.86;99555.97;4427353;32;19998;-81
2022/05/25 12:35:03;;;;;;;;;;;;;;;29.77;39.57;99564.06;4428032;32;20052;-85
2022/05/25 12:37:31;;;;;;;;;;;;;;;29.83;38.73;99558.31;4429820;32;19995;-84
2022/05/25 12:40:09;;;;;;;;;;;;;;;29.47;39.45;99557.13;4427955;32;20009;-89
2022/05/25 12:42:38;;;;;;;;;;;;;;;29.58;39.48;99557.28;4414562;32;20394;-87
2022/05/25 12:50:40;;;;;;;;;;;;;;;29.06;41.87;99552.72;4429660;32;19989;-87
2022/05/25 12:53:16;;;;;;;;;;;;;;;29.18;41.25;99548.41;4415347;32;19985;-82
2022/05/25 12:55:43;;;;;;;;;;;;;;;29.48;40.18;99542.84;4429307;32;20019;-87
2022/05/25 12:58:11;;;;;;;;;;;;;;;29.46;40.14;99538.59;4415848;32;20093;-88
2022/05/25 13:00:43;;;;;;;;;;;;;;;29.52;41.21;99547.03;4428295;32;20319;-81
2022/05/25 13:03:20;;;;;;;;;;;;;;;29.86;38.88;99536.75;4425642;32;20326;-82
2022/05/25 13:05:47;;;;;;;;;;;;;;;29.94;39.46;99545.09;4424950;32;20008;-84
2022/05/25 13:08:33;;;;;;;;;;;;;;;29.74;38.61;99532.25;4425720;32;20033;-84
2022/05/25 13:11:00;;;;;;;;;;;;;;;29.45;38.89;99532.38;4428952;32;19973;-87
2022/05/25 13:13:48;;;;;;;;;;;;;;;29.36;39.77;99533.88;4409167;32;20057;-83
2022/05/25 13:16:38;;;;;;;;;;;;;;;29.56;38.78;99524.50;4432256;32;20862;-81
2022/05/25 13:19:35;;;;;;;;;;;;;;;29.49;39.44;99533.91;4421708;32;20019;-84
2022/05/25 13:22:11;;;;;;;;;;;;;;;29.58;39.71;99530.63;4414229;32;20000;-80
2022/05/25 13:24:41;;;;;;;;;;;;;;;29.57;39.56;99526.22;4421307;32;20379;-83
2022/05/25 13:27:08;;;;;;;;;;;;;;;29.71;40.44;99532.44;4414742;32;19996;-84
2022/05/25 13:29:44;;;;;;;;;;;;;;;29.95;37.86;99533.44;4414318;32;20307;-81